Time;durP1;ratioP1;P1;durP2;ratioP2;P2;SDS_P1;SDS_P2;PMS_P1;PMS_P2;Temp;Humidity;BMP_temperature;BMP_pressure;BME280_temperature;BME280_humidity;BME280_pressure;Samples;Min_cycle;Max_cycle;Signal;HPM_P1;HPM_P2
2022/09/26 00:01:42;;;;;;;8.80;5.45;;;10.40;99.90;;;9.88;100.00;96795.34;5044415;28;20490;-53
2022/09/26 00:04:23;;;;;;;10.90;6.65;;;10.40;99.90;;;9.91;100.00;96797.84;5038149;28;20127;-51
2022/09/26 00:06:51;;;;;;;9.85;6.18;;;10.50;99.90;;;9.92;100.00;96789.03;5041563;28;20036;-50
2022/09/26 00:09:17;;;;;;;9.63;6.22;;;10.50;99.90;;;9.88;100.00;96782.16;5040814;28;20758;-53
2022/09/26 00:11:43;;;;;;;11.45;5.75;;;10.50;99.90;;;9.94;100.00;96786.31;5038767;28;20075;-51
2022/09/26 00:14:20;;;;;;;7.20;5.07;;;10.50;99.90;;;9.94;100.00;96783.66;5040240;28;20036;-52
2022/09/26 00:16:47;;;;;;;8.70;5.10;;;10.50;99.90;;;9.91;100.00;96786.47;5042532;28;20032;-52
2022/09/26 00:19:13;;;;;;;6.65;5.05;;;10.50;99.90;;;9.87;100.00;96776.97;5046781;28;20032;-52
2022/09/26 00:21:39;;;;;;;6.32;4.40;;;10.40;99.90;;;9.81;100.00;96779.88;5043484;28;20075;-51
2022/09/26 00:24:06;;;;;;;7.43;4.60;;;10.30;99.90;;;9.72;100.00;96779.34;5042612;28;20387;-53
2022/09/26 00:26:33;;;;;;;5.57;4.22;;;10.20;99.90;;;9.64;100.00;96778.84;5040411;28;20039;-53
2022/09/26 00:29:06;;;;;;;5.10;3.53;;;10.10;99.90;;;9.51;100.00;96781.16;5036170;28;20649;-52
2022/09/26 00:31:35;;;;;;;6.70;4.22;;;10.00;99.90;;;9.43;100.00;96785.03;5032506;28;20040;-52
2022/09/26 00:34:01;;;;;;;7.70;4.03;;;10.00;99.90;;;9.33;100.00;96779.25;5032861;28;20056;-52
2022/09/26 00:36:28;;;;;;;8.02;4.40;;;9.90;99.90;;;9.22;100.00;96777.09;5035323;28;20518;-51
2022/09/26 00:38:54;;;;;;;5.65;4.20;;;9.80;99.90;;;9.13;100.00;96777.47;5039689;28;20393;-49
2022/09/26 00:41:20;;;;;;;7.40;4.53;;;9.70;99.90;;;9.06;100.00;96783.91;5043382;28;20436;-50
2022/09/26 00:43:49;;;;;;;6.53;4.10;;;9.60;99.90;;;8.97;100.00;96777.22;5041324;28;20140;-53
2022/09/26 00:46:35;;;;;;;8.50;4.35;;;9.50;99.90;;;8.81;100.00;96765.63;5030429;28;20348;-53
2022/09/26 00:49:32;;;;;;;5.45;3.80;;;9.40;99.90;;;8.75;100.00;96778.09;5032428;28;20052;-51
2022/09/26 00:52:11;;;;;;;7.68;4.50;;;9.30;99.90;;;8.67;100.00;96768.78;5041124;28;20389;-52
2022/09/26 00:54:40;;;;;;;5.68;3.95;;;9.30;99.90;;;8.63;100.00;96773.31;5032042;28;20107;-52
2022/09/26 00:57:13;;;;;;;5.72;4.05;;;9.20;99.90;;;8.56;100.00;96770.09;5038783;28;20156;-52
2022/09/26 00:59:42;;;;;;;;;;;9.10;99.90;;;8.51;100.00;96772.03;5036973;28;20044;-52
2022/09/26 01:02:08;;;;;;;7.22;4.43;;;9.10;99.90;;;8.44;100.00;96770.56;5038442;28;19938;-52
2022/09/26 01:04:38;;;;;;;6.00;4.22;;;9.10;99.90;;;8.37;100.00;96767.28;5047150;28;20037;-51
2022/09/26 01:07:10;;;;;;;7.70;4.53;;;9.00;99.90;;;8.32;100.00;96749.97;5032122;28;20112;-51
2022/09/26 01:09:36;;;;;;;;;;;8.90;99.90;;;8.29;100.00;96753.59;5040104;28;20032;-52
2022/09/26 01:12:05;;;;;;;8.10;4.45;;;8.90;99.90;;;8.29;100.00;96752.72;5038447;28;20323;-52
2022/09/26 01:14:33;;;;;;;7.70;5.20;;;8.90;99.90;;;8.28;100.00;96748.38;5035602;28;20037;-52
2022/09/26 01:16:59;;;;;;;7.82;5.80;;;8.80;99.90;;;8.26;100.00;96745.81;5034582;28;20024;-53
2022/09/26 01:20:02;;;;;;;6.18;5.15;;;8.80;99.90;;;8.21;100.00;96755.63;5041256;28;20501;-53
2022/09/26 01:23:13;;;;;;;10.02;5.40;;;8.80;99.90;;;8.16;100.00;96762.84;5031349;28;20036;-51
2022/09/26 01:26:15;;;;;;;9.60;6.43;;;8.70;99.90;;;8.17;100.00;96759.31;5029457;28;20110;-50
2022/09/26 01:29:19;;;;;;;9.68;5.90;;;8.70;99.90;;;8.11;100.00;96751.63;5030832;28;20485;-53
2022/09/26 01:34:59;;;;;;;9.63;6.93;;;8.70;99.90;;;8.07;100.00;96753.53;5063970;22;20074;-46
2022/09/26 01:38:10;;;;;;;9.60;6.95;;;8.70;99.90;;;8.08;100.00;96755.25;5060414;28;20046;-45
2022/09/26 01:41:04;;;;;;;11.07;7.80;;;8.60;99.90;;;8.09;100.00;96756.94;5063041;28;20038;-44
2022/09/26 01:44:14;;;;;;;13.15;7.93;;;8.70;99.90;;;8.10;100.00;96753.41;5060862;28;20341;-44
2022/09/26 01:47:01;;;;;;;14.10;7.72;;;8.70;99.90;;;8.01;100.00;96736.22;5041323;28;20029;-46
2022/09/26 01:49:39;;;;;;;9.40;7.57;;;8.80;99.90;;;8.16;100.00;96758.41;5041649;28;20548;-44
2022/09/26 01:52:13;;;;;;;10.63;7.80;;;8.80;99.90;;;8.16;100.00;96754.94;5036405;28;20036;-45
2022/09/26 01:54:48;;;;;;;11.15;7.45;;;8.80;99.90;;;8.19;100.00;96760.94;5031241;28;20028;-46
2022/09/26 01:57:37;;;;;;;11.60;8.10;;;8.80;99.90;;;8.21;100.00;96758.25;5030061;28;20032;-46
2022/09/26 02:00:06;;;;;;;7.53;6.55;;;8.80;99.90;;;8.24;100.00;96752.91;5027101;28;20667;-43
2022/09/26 02:02:40;;;;;;;9.05;7.10;;;8.80;99.90;;;8.24;100.00;96745.03;5036409;28;20028;-44
2022/09/26 02:05:45;;;;;;;9.90;6.80;;;8.80;99.90;;;8.30;100.00;96754.44;5050524;28;20705;-44
2022/09/26 02:08:40;;;;;;;8.07;6.60;;;8.90;99.90;;;8.30;100.00;96744.78;5042111;28;20044;-44
2022/09/26 02:11:18;;;;;;;10.02;6.70;;;8.90;99.90;;;8.39;100.00;96754.94;5043544;28;20510;-44
2022/09/26 02:13:59;;;;;;;8.82;6.70;;;9.00;99.90;;;8.45;100.00;96753.00;5038843;28;20036;-44
2022/09/26 02:17:05;;;;;;;10.43;6.90;;;9.00;99.90;;;8.50;100.00;96744.03;5044011;28;20066;-47
2022/09/26 02:19:45;;;;;;;8.93;6.13;;;9.10;99.90;;;8.56;100.00;96742.94;4991641;28;20029;-46
2022/09/26 02:22:11;;;;;;;8.25;6.07;;;9.10;99.90;;;8.60;100.00;96748.03;5011979;28;20103;-45
2022/09/26 02:24:37;;;;;;;8.25;6.00;;;9.20;99.90;;;8.62;100.00;96744.50;5039608;28;20571;-46
2022/09/26 02:27:03;;;;;;;10.85;6.25;;;9.20;99.90;;;8.63;100.00;96746.19;5033772;28;20089;-43
2022/09/26 02:29:29;;;;;;;7.65;5.90;;;9.20;99.90;;;8.63;100.00;96740.94;5040526;28;20158;-43
2022/09/26 02:32:14;;;;;;;5.95;5.25;;;9.20;99.90;;;8.63;100.00;96733.03;5041459;28;20124;-48
2022/09/26 02:34:42;;;;;;;8.10;5.63;;;9.20;99.90;;;8.63;100.00;96738.28;5037446;28;20235;-47
2022/09/26 02:37:09;;;;;;;6.53;5.38;;;9.20;99.90;;;8.64;100.00;96724.25;5030458;28;20432;-52
2022/09/26 02:39:35;;;;;;;7.30;5.60;;;9.20;99.90;;;8.66;100.00;96727.66;5034453;28;20093;-47
2022/09/26 02:42:29;;;;;;;7.10;5.10;;;9.20;99.90;;;8.69;100.00;96727.56;5038193;28;20116;-48
2022/09/26 02:45:17;;;;;;;6.45;4.75;;;9.30;99.90;;;8.70;100.00;96724.84;5039905;28;20470;-47
2022/09/26 02:48:16;;;;;;;8.98;5.00;;;9.30;99.90;;;8.70;100.00;96727.47;5035893;28;20032;-47
2022/09/26 02:51:00;;;;;;;7.82;5.13;;;9.30;99.90;;;8.67;100.00;96718.84;5043992;28;20044;-48
2022/09/26 02:54:14;;;;;;;6.38;4.35;;;9.30;99.90;;;8.70;100.00;96719.56;5047021;28;23833;-46
2022/09/26 02:57:21;;;;;;;6.47;4.40;;;9.30;99.90;;;8.73;100.00;96721.25;5031592;28;20064;-48
2022/09/26 03:00:05;;;;;;;7.32;4.25;;;9.30;99.90;;;8.73;100.00;96722.09;5038774;28;20035;-47
2022/09/26 03:02:38;;;;;;;5.30;4.03;;;9.30;99.90;;;8.73;100.00;96710.72;5032770;28;20040;-48
2022/09/26 03:05:25;;;;;;;7.72;4.40;;;9.30;99.90;;;8.72;100.00;96709.88;5038668;28;20047;-47
2022/09/26 03:08:25;;;;;;;9.40;4.50;;;9.30;99.90;;;8.72;100.00;96703.75;5044178;28;20856;-49
2022/09/26 03:10:53;;;;;;;6.32;4.55;;;9.30;99.90;;;8.72;100.00;96701.13;5033843;28;20052;-47
2022/09/26 03:13:20;;;;;;;6.72;4.50;;;9.30;99.90;;;8.71;100.00;96695.03;5049331;28;20503;-47
2022/09/26 03:15:53;;;;;;;10.82;5.07;;;9.30;99.90;;;8.69;100.00;96691.59;5038625;28;20385;-48
2022/09/26 03:18:27;;;;;;;7.05;4.68;;;9.30;99.90;;;8.70;100.00;96688.03;5036843;28;20189;-47
2022/09/26 03:20:53;;;;;;;5.88;4.50;;;9.30;99.90;;;8.70;100.00;96674.91;5042669;28;20036;-47
2022/09/26 03:23:24;;;;;;;7.65;4.38;;;9.20;99.90;;;8.69;100.00;96683.72;5043030;28;20041;-47
2022/09/26 03:26:23;;;;;;;6.25;4.00;;;9.30;99.90;;;8.68;100.00;96683.78;5040634;28;20032;-46
2022/09/26 03:28:52;;;;;;;5.65;4.20;;;9.30;99.90;;;8.67;100.00;96680.31;5038630;28;20032;-47
2022/09/26 03:31:23;;;;;;;6.78;4.50;;;9.30;99.90;;;8.67;100.00;96677.66;5038705;28;20067;-48
2022/09/26 03:33:50;;;;;;;6.28;4.25;;;9.20;99.90;;;8.66;100.00;96677.72;5037285;28;20064;-47
2022/09/26 03:36:16;;;;;;;4.72;3.40;;;9.20;99.90;;;8.65;100.00;96676.00;5039767;28;20033;-47
2022/09/26 03:38:42;;;;;;;7.40;3.60;;;9.30;99.90;;;8.64;100.00;96669.06;5037968;28;20026;-48
2022/09/26 03:41:08;;;;;;;5.07;3.25;;;9.20;99.90;;;8.62;100.00;96670.91;5038460;28;20043;-48
2022/09/26 03:43:35;;;;;;;8.10;4.05;;;9.20;99.90;;;8.49;100.00;96653.00;5047404;28;20032;-47
2022/09/26 03:46:03;;;;;;;4.18;3.33;;;9.20;99.90;;;8.59;100.00;96667.44;5055707;28;20045;-48
2022/09/26 03:48:30;;;;;;;3.97;3.20;;;9.20;99.90;;;8.58;100.00;96659.66;5035119;28;20024;-48
2022/09/26 03:51:05;;;;;;;4.88;3.40;;;9.20;99.90;;;8.57;100.00;96660.56;5033262;28;20123;-47
2022/09/26 03:53:38;;;;;;;6.85;3.40;;;9.20;99.90;;;8.55;100.00;96659.75;5038983;28;20036;-49
2022/09/26 03:56:16;;;;;;;5.32;3.17;;;9.20;99.90;;;8.55;100.00;96652.72;5036229;28;20056;-47
2022/09/26 03:58:43;;;;;;;6.22;3.20;;;9.20;99.90;;;8.54;100.00;96644.91;5044699;28;20230;-48
2022/09/26 04:01:16;;;;;;;6.25;3.60;;;9.20;99.90;;;8.54;100.00;96644.91;5045783;28;20583;-48
2022/09/26 04:03:43;;;;;;;3.25;2.83;;;9.10;99.90;;;8.52;100.00;96642.34;5037263;28;20072;-48
2022/09/26 04:06:11;;;;;;;5.03;3.35;;;9.10;99.90;;;8.50;100.00;96640.69;5044289;28;20028;-47
2022/09/26 04:08:39;;;;;;;4.75;3.42;;;9.10;99.90;;;8.46;100.00;96642.59;5038570;28;20047;-46
2022/09/26 04:11:18;;;;;;;5.07;3.63;;;9.10;99.90;;;8.45;100.00;96643.50;5041012;28;20024;-50
2022/09/26 04:13:44;;;;;;;4.35;3.30;;;9.10;99.90;;;8.43;100.00;96639.25;5038704;28;20031;-50
2022/09/26 04:16:10;;;;;;;5.60;3.20;;;9.10;99.90;;;8.29;100.00;96610.84;5044469;28;20029;-47
2022/09/26 04:18:36;;;;;;;5.90;3.85;;;9.00;99.90;;;8.41;100.00;96629.59;5047703;28;20074;-50
2022/09/26 04:21:12;;;;;;;4.47;2.92;;;9.00;99.90;;;8.31;100.00;96617.78;5041000;28;20648;-49
2022/09/26 04:23:40;;;;;;;4.35;2.75;;;8.90;99.90;;;8.28;100.00;96619.66;5043297;28;20021;-50
2022/09/26 04:26:16;;;;;;;5.93;2.90;;;8.90;99.90;;;8.20;100.00;96620.84;5024915;28;20123;-49
2022/09/26 04:28:43;;;;;;;4.28;3.08;;;8.80;99.90;;;8.14;100.00;96615.81;5040847;28;20033;-50
2022/09/26 04:31:10;;;;;;;4.03;3.05;;;8.70;99.90;;;8.10;100.00;96606.34;5046143;28;20064;-51
2022/09/26 04:33:38;;;;;;;6.05;3.00;;;8.70;99.90;;;8.06;100.00;96602.16;5040561;28;20086;-50
2022/09/26 04:36:14;;;;;;;6.43;3.13;;;8.70;99.90;;;8.06;100.00;96599.53;5035003;28;20452;-50
2022/09/26 04:38:40;;;;;;;4.57;2.88;;;8.70;99.90;;;8.04;100.00;96596.09;5028012;28;20029;-51
2022/09/26 04:41:07;;;;;;;5.22;3.17;;;8.70;99.90;;;8.02;100.00;96600.53;5030647;28;20036;-49
2022/09/26 04:43:33;;;;;;;4.18;2.83;;;8.60;99.90;;;7.97;100.00;96595.47;5030730;28;20044;-49
2022/09/26 04:46:00;;;;;;;6.40;2.75;;;8.60;99.90;;;7.94;100.00;96594.75;5024310;28;20117;-52
2022/09/26 04:48:26;;;;;;;4.47;2.72;;;8.50;99.90;;;7.90;100.00;96603.66;5028916;28;20036;-50
2022/09/26 04:50:52;;;;;;;7.20;3.55;;;8.50;99.90;;;7.82;100.00;96596.94;5033855;28;20218;-52
2022/09/26 04:53:18;;;;;;;3.72;3.08;;;8.50;99.90;;;7.81;100.00;96595.22;5040504;28;20029;-51
2022/09/26 04:55:47;;;;;;;5.18;2.80;;;8.40;99.90;;;7.74;100.00;96583.25;5030401;28;20032;-53
2022/09/26 04:58:15;;;;;;;6.25;3.10;;;8.40;99.90;;;7.73;100.00;96591.19;5038310;28;20036;-52
2022/09/26 05:00:46;;;;;;;3.22;2.75;;;8.30;99.90;;;7.63;100.00;96590.69;5035280;28;22882;-50
2022/09/26 05:03:12;;;;;;;5.63;3.03;;;8.30;99.90;;;7.61;100.00;96590.75;5044368;28;20032;-49
2022/09/26 05:05:46;;;;;;;4.18;3.10;;;8.20;99.90;;;7.59;100.00;96583.81;5030659;28;21770;-49
2022/09/26 05:08:13;;;;;;;3.97;2.80;;;8.20;99.90;;;7.53;100.00;96582.28;5036528;28;21683;-50
2022/09/26 05:10:40;;;;;;;3.38;2.60;;;8.20;99.90;;;7.49;100.00;96580.72;5037837;28;20029;-50
2022/09/26 05:13:06;;;;;;;6.50;2.75;;;8.10;99.90;;;7.43;100.00;96576.56;5033953;28;20040;-51
2022/09/26 05:15:38;;;;;;;5.38;2.67;;;8.10;99.90;;;7.41;100.00;96581.00;5040567;28;20041;-47
2022/09/26 05:18:06;;;;;;;4.28;2.47;;;8.00;99.90;;;7.38;100.00;96585.50;5039737;28;20040;-48
2022/09/26 05:20:33;;;;;;;3.45;2.88;;;8.00;99.90;;;7.35;100.00;96585.63;5044320;28;20028;-51
2022/09/26 05:23:05;;;;;;;4.18;2.80;;;8.00;99.90;;;7.33;100.00;96590.91;5049272;28;20040;-51
2022/09/26 05:28:26;;;;;;;4.93;2.90;;;7.90;99.90;;;7.33;100.00;96587.44;5044219;28;20035;-52
2022/09/26 05:30:53;;;;;;;5.00;3.13;;;7.90;99.90;;;7.34;100.00;96584.78;5040772;28;20079;-50
2022/09/26 05:33:18;;;;;;;5.57;2.75;;;8.00;99.90;;;7.38;100.00;96585.50;5034019;28;20525;-46
2022/09/26 05:35:52;;;;;;;3.83;2.90;;;8.00;99.90;;;7.44;100.00;96577.41;5041928;28;20302;-50
2022/09/26 05:38:17;;;;;;;6.40;3.10;;;8.00;99.90;;;7.48;100.00;96578.13;5035615;28;22129;-50
2022/09/26 05:40:55;;;;;;;4.30;2.90;;;8.10;99.90;;;7.50;100.00;96566.69;5034671;28;20046;-49
2022/09/26 05:43:29;;;;;;;4.45;2.88;;;8.20;99.90;;;7.54;100.00;96575.31;5034849;28;20042;-52
2022/09/26 05:46:02;;;;;;;3.13;2.63;;;8.20;99.90;;;7.60;100.00;96569.81;5044227;28;20043;-50
2022/09/26 05:48:29;;;;;;;4.35;2.95;;;8.20;99.90;;;7.67;100.00;96570.44;5040708;28;20113;-51
2022/09/26 05:50:55;;;;;;;4.53;3.22;;;8.30;99.90;;;7.74;100.00;96567.50;5039611;28;22552;-50
2022/09/26 05:53:21;;;;;;;3.88;2.92;;;8.40;99.90;;;7.81;100.00;96573.38;5045606;28;20035;-51
2022/09/26 05:55:50;;;;;;;3.30;3.00;;;8.40;99.90;;;7.78;100.00;96542.84;5040532;28;20032;-51
2022/09/26 05:58:17;;;;;;;6.15;3.63;;;8.50;99.90;;;8.02;100.00;96563.78;5041467;28;20029;-52
2022/09/26 06:00:47;;;;;;;4.85;3.53;;;8.60;99.90;;;8.18;100.00;96562.25;5036895;28;20224;-51
2022/09/26 06:03:14;;;;;;;4.53;3.70;;;8.80;99.90;;;8.34;100.00;96558.97;5058394;28;20321;-50
2022/09/26 06:05:41;;;;;;;5.78;3.28;;;8.90;99.90;;;8.47;100.00;96554.97;5037202;28;20385;-50
2022/09/26 06:08:08;;;;;;;4.38;3.10;;;9.10;99.90;;;8.66;100.00;96560.28;5040454;28;20105;-50
2022/09/26 06:10:35;;;;;;;4.82;3.22;;;9.20;99.90;;;8.81;100.00;96550.91;5038216;28;20471;-47
2022/09/26 06:13:02;;;;;;;3.72;3.08;;;9.40;99.90;;;8.92;100.00;96553.06;5038863;28;20031;-50
2022/09/26 06:15:31;;;;;;;3.45;3.15;;;9.50;99.90;;;9.05;100.00;96553.38;5042785;28;20232;-50
2022/09/26 06:18:05;;;;;;;4.53;3.10;;;9.60;99.90;;;9.17;100.00;96553.69;5044025;28;20028;-51
2022/09/26 06:20:32;;;;;;;3.45;2.70;;;9.70;99.90;;;9.28;100.00;96555.84;5041582;28;20033;-51
2022/09/26 06:23:00;;;;;;;4.75;2.75;;;9.90;99.90;;;9.35;100.00;96549.38;5033847;28;20656;-54
2022/09/26 06:25:26;;;;;;;3.45;2.60;;;9.90;99.90;;;9.43;100.00;96559.53;5030684;28;20738;-52
2022/09/26 06:27:56;;;;;;;3.75;2.60;;;10.00;99.90;;;9.50;100.00;96555.69;5035641;28;20570;-51
2022/09/26 06:30:23;;;;;;;4.28;2.60;;;10.10;99.90;;;9.54;100.00;96551.16;5039099;28;20082;-51
2022/09/26 06:32:52;;;;;;;6.68;2.65;;;10.10;99.90;;;9.65;100.00;96546.22;5038183;28;20033;-49
2022/09/26 06:35:20;;;;;;;4.82;2.50;;;10.20;99.90;;;9.74;100.00;96555.47;5045000;28;20082;-50
2022/09/26 06:37:46;;;;;;;5.30;2.80;;;10.30;99.90;;;9.82;100.00;96545.44;5031966;28;20617;-50
2022/09/26 06:40:13;;;;;;;3.83;2.70;;;10.40;99.90;;;9.91;100.00;96547.63;5046060;28;20056;-51
2022/09/26 06:42:39;;;;;;;5.85;3.00;;;10.50;99.90;;;10.03;100.00;96545.31;5042246;28;20032;-51
2022/09/26 06:45:09;;;;;;;4.22;2.53;;;10.60;99.90;;;10.17;100.00;96545.50;5051449;28;20115;-55
2022/09/26 06:47:35;;;;;;;3.15;2.40;;;10.70;99.90;;;10.30;100.00;96532.56;5037036;28;20377;-55
2022/09/26 06:50:02;;;;;;;3.10;2.00;;;10.80;99.90;;;10.43;100.00;96541.63;5038106;28;20036;-51
2022/09/26 06:52:32;;;;;;;4.68;2.45;;;11.00;99.90;;;10.56;100.00;96535.75;5038242;28;20062;-51
2022/09/26 06:54:58;;;;;;;3.20;2.60;;;11.10;99.90;;;10.64;100.00;96534.44;5039781;28;20036;-48
2022/09/26 06:57:24;;;;;;;3.00;2.40;;;11.20;99.90;;;10.77;100.00;96541.72;5038595;28;20044;-50
2022/09/26 06:59:49;;;;;;;5.25;2.40;;;11.30;99.90;;;10.84;100.00;96535.19;5039439;28;20059;-49
2022/09/26 07:02:15;;;;;;;5.93;2.10;;;11.40;99.90;;;10.94;100.00;96535.56;5040919;28;20044;-50
2022/09/26 07:04:42;;;;;;;3.78;2.38;;;11.50;99.90;;;11.01;100.00;96532.50;5036629;28;20041;-50
2022/09/26 07:07:08;;;;;;;3.35;2.13;;;11.60;99.90;;;11.10;100.00;96530.31;5032182;28;20418;-50
2022/09/26 07:09:33;;;;;;;5.80;2.30;;;11.60;99.90;;;11.08;100.00;96533.03;5038769;28;20116;-48
2022/09/26 07:12:00;;;;;;;3.67;2.47;;;11.70;99.90;;;11.17;100.00;96529.06;5031995;28;20024;-47
2022/09/26 07:14:26;;;;;;;2.83;2.22;;;11.70;99.90;;;11.31;100.00;96528.34;5026933;28;21058;-50
2022/09/26 07:16:52;;;;;;;4.85;2.20;;;11.80;99.90;;;11.42;100.00;96532.09;5041097;28;20327;-49
2022/09/26 07:19:18;;;;;;;3.55;1.75;;;12.00;99.90;;;11.57;100.00;96535.66;5043544;28;20036;-48
2022/09/26 07:21:45;;;;;;;6.93;2.00;;;12.10;99.90;;;11.61;100.00;96549.56;5045113;28;20285;-46
2022/09/26 07:24:13;;;;;;;3.10;2.10;;;12.20;99.90;;;11.62;100.00;96540.72;5043661;28;20113;-46
2022/09/26 07:26:43;;;;;;;7.90;2.00;;;12.20;99.90;;;11.59;100.00;96541.75;5038266;28;20031;-48
2022/09/26 07:29:09;;;;;;;2.97;1.90;;;12.20;99.90;;;11.72;100.00;96525.19;5040844;28;20470;-48
2022/09/26 07:31:35;;;;;;;3.45;1.90;;;12.20;99.90;;;11.72;100.00;96522.56;5034292;28;20501;-46
2022/09/26 07:34:02;;;;;;;3.60;2.08;;;12.30;99.90;;;11.84;100.00;96527.16;5042129;28;20319;-49
2022/09/26 07:36:29;;;;;;;2.03;1.77;;;12.40;99.90;;;11.94;100.00;96522.25;5077651;22;20573;-40
2022/09/26 07:38:55;;;;;;;4.28;2.08;;;12.50;99.90;;;12.05;100.00;96521.66;5048443;28;20032;-40
2022/09/26 07:41:21;;;;;;;3.67;1.92;;;12.60;99.90;;;12.23;100.00;96524.09;5066409;28;20054;-40
2022/09/26 07:43:47;;;;;;;4.28;1.88;;;12.70;99.90;;;12.35;100.00;96516.41;5064301;28;20106;-40
2022/09/26 07:51:41;;;;;;;4.22;2.10;;;13.10;99.90;;;12.60;100.00;96511.38;5061193;28;21386;-40
2022/09/26 07:54:07;;;;;;;4.28;1.70;;;13.20;99.90;;;12.71;100.00;96517.81;5062581;28;20024;-40
2022/09/26 07:56:33;;;;;;;3.58;1.90;;;13.20;99.90;;;12.77;100.00;96504.22;5067453;28;20070;-40
2022/09/26 07:59:04;;;;;;;3.03;1.83;;;13.30;99.90;;;12.74;100.00;96501.75;5056481;28;20036;-40
2022/09/26 08:01:30;;;;;;;3.55;1.83;;;13.40;99.90;;;12.96;100.00;96517.19;5061208;28;20031;-41
2022/09/26 08:03:57;;;;;;;3.83;1.50;;;13.40;99.90;;;13.10;100.00;96505.75;5059377;28;20058;-40
2022/09/26 08:06:26;;;;;;;3.60;1.92;;;13.50;99.90;;;13.18;100.00;96500.84;5053560;28;20024;-40
2022/09/26 08:08:54;;;;;;;4.10;1.75;;;13.70;99.90;;;13.26;98.07;96509.19;5045801;28;20035;-41
2022/09/26 08:11:21;;;;;;;2.47;1.70;;;13.80;99.90;;;13.26;98.26;96503.00;5050187;28;20028;-40
2022/09/26 08:13:47;;;;;;;4.88;1.80;;;13.80;99.90;;;13.33;98.14;96507.00;5058778;28;20449;-40
2022/09/26 08:16:22;;;;;;;3.55;1.90;;;13.80;99.90;;;13.34;96.28;96490.19;5064649;28;20024;-41
2022/09/26 08:18:52;;;;;;;2.90;1.75;;;13.90;99.90;;;13.51;95.84;96497.94;5056173;28;21910;-40
2022/09/26 08:21:19;;;;;;;7.60;2.20;;;13.90;99.90;;;13.54;95.28;96489.78;5059142;28;20047;-40
2022/09/26 08:23:48;;;;;;;3.83;2.05;;;14.00;99.90;;;13.67;93.77;96496.94;5062740;28;20039;-40
2022/09/26 08:26:14;;;;;;;6.30;1.85;;;14.10;99.90;;;13.68;93.35;96493.38;5060644;28;20036;-42
2022/09/26 08:28:41;;;;;;;3.67;2.05;;;14.10;99.90;;;13.55;92.62;96490.66;5058732;28;20089;-40
2022/09/26 08:31:07;;;;;;;3.42;1.88;;;14.10;99.90;;;13.65;92.39;96489.09;5056621;28;20031;-40
2022/09/26 08:33:36;;;;;;;4.03;1.80;;;14.20;99.90;;;13.75;91.42;96492.88;5056848;28;20551;-40
2022/09/26 08:36:10;;;;;;;4.22;2.20;;;14.30;99.90;;;13.71;91.23;96478.13;5059950;28;20519;-40
2022/09/26 08:38:37;;;;;;;3.22;1.77;;;14.30;99.90;;;13.79;91.71;96487.38;5064445;28;20510;-40
2022/09/26 08:41:48;;;;;;;5.22;1.90;;;14.30;99.90;;;13.74;94.39;96487.66;5060792;28;20759;-41
2022/09/26 08:46:14;;;;;;;4.72;2.25;;;14.20;99.90;;;13.70;93.08;96487.00;5065007;28;20366;-41
2022/09/26 08:47:55;;;;;;;4.70;2.70;;;14.20;99.90;;;13.51;89.47;96482.03;5064146;28;20047;-41
2022/09/26 08:50:50;;;;;;;5.55;1.80;;;14.10;99.90;;;13.40;92.80;96479.19;5062051;28;20067;-40
2022/09/26 08:53:24;;;;;;;5.70;2.08;;;13.90;99.90;;;13.31;95.29;96479.78;5064764;28;20420;-40
2022/09/26 08:55:52;;;;;;;3.40;1.40;;;13.70;99.90;;;13.33;96.40;96470.81;5064748;28;20131;-41
2022/09/26 08:58:25;;;;;;;4.65;1.90;;;13.80;99.90;;;13.45;96.93;96476.28;5062359;28;20039;-40
2022/09/26 09:00:57;;;;;;;4.78;2.08;;;13.90;99.90;;;13.51;94.58;96471.44;5055378;28;20040;-40
2022/09/26 09:03:50;;;;;;;8.13;2.42;;;13.90;99.90;;;13.56;91.78;96485.22;5079195;27;20094;-40
2022/09/26 09:06:16;;;;;;;;;;;14.00;99.90;;;13.58;91.98;96479.00;5061025;28;20037;-40
2022/09/26 09:08:50;;;;;;;9.05;1.70;;;14.00;99.90;;;13.60;90.83;96477.09;5060578;28;19912;-43
2022/09/26 09:11:32;;;;;;;3.85;1.80;;;14.10;99.90;;;13.51;89.66;96476.75;5061333;28;20039;-40
2022/09/26 09:14:47;;;;;;;6.80;1.70;;;14.00;99.90;;;13.47;93.09;96477.03;5053389;28;20031;-42
2022/09/26 09:17:46;;;;;;;5.07;2.00;;;13.90;99.90;;;13.33;90.25;96475.25;5055213;28;20134;-40
2022/09/26 09:20:51;;;;;;;4.50;1.77;;;13.90;99.90;;;13.31;89.52;96470.03;5060957;28;20057;-40
2022/09/26 09:23:39;;;;;;;5.90;1.73;;;13.80;99.90;;;13.27;88.50;96465.84;5059908;28;20110;-41
2022/09/26 09:27:00;;;;;;;3.90;1.50;;;13.80;99.90;;;13.21;89.51;96466.25;5064493;28;20314;-40
2022/09/26 09:29:50;;;;;;;3.95;1.48;;;13.70;99.90;;;13.12;85.39;96462.38;5062252;28;20093;-41
2022/09/26 09:32:21;;;;;;;2.95;1.45;;;13.70;99.90;;;13.14;88.51;96455.19;5062510;28;20036;-40
2022/09/26 09:34:48;;;;;;;3.22;1.50;;;13.60;99.90;;;13.22;87.58;96459.16;5061168;28;20110;-39
2022/09/26 09:37:19;;;;;;;4.72;1.88;;;13.70;99.90;;;13.18;91.29;96439.97;5058717;28;20059;-40
2022/09/26 09:39:48;;;;;;;3.70;1.63;;;13.70;99.90;;;13.40;88.26;96443.94;5061318;28;20496;-40
2022/09/26 09:42:40;;;;;;;2.33;1.50;;;13.80;99.90;;;13.34;86.70;96422.19;5064493;28;20508;-41
2022/09/26 09:45:38;;;;;;;4.30;1.77;;;14.00;99.90;;;13.56;86.53;96442.00;5058983;28;20483;-40
2022/09/26 09:48:10;;;;;;;4.18;1.42;;;14.00;99.90;;;13.66;88.00;96448.41;5063987;28;20113;-40
2022/09/26 09:51:13;;;;;;;2.17;1.60;;;14.10;99.90;;;13.73;85.11;96443.59;5060168;28;20039;-40
2022/09/26 09:54:02;;;;;;;1.83;1.37;;;14.20;99.90;;;13.70;86.39;96430.53;5052085;28;20586;-40
2022/09/26 09:57:16;;;;;;;3.78;1.48;;;14.10;99.90;;;13.83;86.19;96434.06;5045129;28;20297;-40
2022/09/26 10:00:05;;;;;;;3.53;1.40;;;14.20;99.90;;;14.29;83.39;96430.19;5056093;28;20177;-41
2022/09/26 10:03:01;;;;;;;1.92;1.52;;;14.70;99.90;;;14.74;83.97;96420.06;5059816;28;20031;-40
2022/09/26 10:05:43;;;;;;;3.28;1.42;;;15.20;99.90;;;15.18;77.75;96421.41;5054906;28;20039;-41
2022/09/26 10:08:15;;;;;;;2.00;1.40;;;15.70;99.90;;;15.39;75.52;96426.97;5057364;28;20485;-40
2022/09/26 10:11:01;;;;;;;5.30;1.40;;;15.90;99.90;;;15.29;79.22;96420.66;5059309;28;20119;-41
2022/09/26 10:13:30;;;;;;;2.72;1.27;;;15.80;99.90;;;14.93;74.49;96424.06;5058288;28;20028;-40
2022/09/26 10:16:06;;;;;;;3.47;1.23;;;15.50;99.90;;;14.73;72.93;96425.47;5053717;28;20040;-40
2022/09/26 10:19:12;;;;;;;3.40;1.27;;;15.30;99.90;;;14.58;71.22;96417.59;5060969;28;20035;-40
2022/09/26 10:21:47;;;;;;;2.55;1.00;;;15.10;99.90;;;14.33;71.42;96411.28;5063325;28;20108;-40
2022/09/26 10:24:27;;;;;;;2.40;1.13;;;14.90;99.90;;;14.27;70.86;96401.09;5063594;28;20032;-41
2022/09/26 10:26:53;;;;;;;5.15;1.20;;;14.70;99.90;;;14.30;67.41;96403.56;5056545;28;20028;-40
2022/09/26 10:29:23;;;;;;;1.88;1.00;;;14.70;99.90;;;14.46;68.79;96400.72;5058536;28;20534;-40
2022/09/26 10:31:55;;;;;;;2.05;1.25;;;14.90;99.90;;;14.69;68.03;96392.97;5052898;28;20039;-41
2022/09/26 10:34:31;;;;;;;2.45;1.10;;;15.20;99.90;;;15.07;67.71;96394.75;5063467;28;20078;-41
2022/09/26 10:37:21;;;;;;;1.27;1.00;;;15.50;99.90;;;15.64;66.90;96395.97;5059760;28;20615;-41
2022/09/26 10:42:42;;;;;;;5.15;1.25;;;16.50;99.90;;;16.26;60.84;96397.63;5063178;28;20723;-41
2022/09/26 10:45:19;;;;;;;3.25;1.10;;;16.70;99.90;;;16.54;56.71;96376.84;5055147;28;20139;-42
2022/09/26 10:47:49;;;;;;;3.05;1.05;;;17.00;99.90;;;16.72;55.81;96382.56;5060773;28;20055;-41
2022/09/26 10:50:23;;;;;;;1.75;0.93;;;17.20;99.90;;;16.69;53.83;96373.03;5056726;28;20021;-41
2022/09/26 10:53:07;;;;;;;3.08;0.80;;;17.20;99.90;;;16.82;53.20;96383.56;5061404;28;20028;-41
2022/09/26 10:55:45;;;;;;;2.65;0.90;;;17.40;99.90;;;16.92;52.22;96384.56;5053871;28;20051;-41
2022/09/26 10:58:28;;;;;;;1.60;0.90;;;17.40;99.90;;;16.88;51.99;96368.94;5060150;28;20528;-41
2022/09/26 11:00:56;;;;;;;;;;;17.40;99.90;;;16.84;52.13;96373.66;5062133;28;20037;-41
2022/09/26 11:03:44;;;;;;;1.83;0.82;;;17.40;99.90;;;16.93;53.05;96364.94;5055338;28;20007;-41
2022/09/26 11:06:25;;;;;;;1.85;0.85;;;17.40;99.90;;;16.72;50.82;96367.44;5052637;28;20020;-41
2022/09/26 11:08:57;;;;;;;2.28;0.80;;;17.40;99.00;;;16.46;52.96;96364.16;5053106;28;20028;-41